Time;durP1;ratioP1;P1;durP2;ratioP2;P2;SDS_P1;SDS_P2;PMS_P1;PMS_P2;Temp;Humidity;BMP_temperature;BMP_pressure;BME280_temperature;BME280_humidity;BME280_pressure;Samples;Min_cycle;Max_cycle;Signal;HPM_P1;HPM_P2
2021/01/24 00:03:23;;;;;;;8.82;7.78;;;;;;;2.46;100.00;98458.41;10236146;29;20062;-73
2021/01/24 00:08:24;;;;;;;9.50;7.88;;;;;;;2.42;100.00;98466.41;10253110;28;20065;-73
2021/01/24 00:13:25;;;;;;;8.45;6.78;;;;;;;2.21;100.00;98450.03;10253026;29;20054;-73
2021/01/24 00:18:27;;;;;;;7.70;6.50;;;;;;;2.24;100.00;98455.94;10253572;28;20043;-73
2021/01/24 00:23:28;;;;;;;9.73;8.15;;;;;;;2.13;100.00;98457.31;10260501;29;20122;-73
2021/01/24 00:28:29;;;;;;;9.00;7.20;;;;;;;2.10;100.00;98463.50;10255440;28;20483;-73
2021/01/24 00:33:30;;;;;;;8.90;7.57;;;;;;;2.01;100.00;98469.09;10271427;28;20044;-73
2021/01/24 00:38:31;;;;;;;7.43;6.03;;;;;;;1.86;100.00;98464.56;10260443;28;20403;-73
2021/01/24 00:43:33;;;;;;;10.43;7.75;;;;;;;1.72;100.00;98465.19;10219496;28;20385;-74
2021/01/24 00:48:35;;;;;;;7.85;7.05;;;;;;;1.46;100.00;98455.91;10242816;29;20094;-73
2021/01/24 00:53:36;;;;;;;6.30;5.68;;;;;;;0.91;100.00;98446.13;10258887;29;20391;-73
2021/01/24 00:58:39;;;;;;;8.02;6.75;;;;;;;0.65;100.00;98436.78;10243531;28;20058;-73
2021/01/24 01:03:40;;;;;;;13.50;10.95;;;;;;;0.61;100.00;98437.78;10243460;29;20111;-73
2021/01/24 01:08:42;;;;;;;15.05;13.45;;;;;;;0.49;100.00;98440.88;10259270;28;20054;-73
2021/01/24 01:13:43;;;;;;;14.77;10.68;;;;;;;0.47;100.00;98455.59;10259507;29;20705;-73
2021/01/24 01:18:45;;;;;;;14.35;11.10;;;;;;;0.46;100.00;98457.34;10258580;28;20490;-73
2021/01/24 01:23:46;;;;;;;10.07;8.98;;;;;;;0.38;100.00;98459.38;10260053;28;20051;-73
2021/01/24 01:28:47;;;;;;;15.55;9.98;;;;;;;0.25;100.00;98458.19;10258457;28;20043;-73
2021/01/24 01:33:48;;;;;;;13.85;10.85;;;;;;;0.28;100.00;98481.34;10258116;28;20050;-73
2021/01/24 01:38:49;;;;;;;10.40;8.73;;;;;;;0.16;100.00;98480.06;10257713;28;20051;-73
2021/01/24 01:43:50;;;;;;;12.82;11.18;;;;;;;0.11;100.00;98494.06;10259129;29;20051;-74
2021/01/24 01:48:51;;;;;;;11.27;9.18;;;;;;;-0.07;100.00;98486.06;10258086;29;20094;-73
2021/01/24 01:53:54;;;;;;;9.35;8.00;;;;;;;-0.02;100.00;98504.88;10240445;29;20055;-73
2021/01/24 01:58:55;;;;;;;8.32;6.70;;;;;;;-0.04;100.00;98508.41;10241242;29;20400;-73
2021/01/24 02:04:09;;;;;;;7.85;5.93;;;;;;;-0.03;100.00;98521.28;10258076;29;20458;-73
2021/01/24 02:09:30;;;;;;;5.35;4.30;;;;;;;-0.06;100.00;98530.88;10257239;28;20043;-73
2021/01/24 02:14:36;;;;;;;4.07;3.13;;;;;;;-0.06;100.00;98546.41;10239594;29;20067;-73
2021/01/24 02:20:04;;;;;;;5.20;3.33;;;;;;;-0.14;100.00;98551.84;10240204;29;20051;-73
2021/01/24 02:25:11;;;;;;;5.15;4.45;;;;;;;-0.05;100.00;98572.25;10257638;29;20039;-73
2021/01/24 02:30:23;;;;;;;4.93;3.78;;;;;;;-0.08;100.00;98581.84;10280075;28;20479;-73
2021/01/24 02:35:29;;;;;;;6.57;3.88;;;;;;;-0.08;100.00;98593.03;10295869;28;20046;-73
2021/01/24 02:40:34;;;;;;;4.88;4.35;;;;;;;-0.07;100.00;98599.91;10278945;28;20059;-73
2021/01/24 02:45:39;;;;;;;4.05;3.03;;;;;;;0.02;100.00;98614.28;10238855;29;20047;-72
2021/01/24 02:50:43;;;;;;;4.57;4.10;;;;;;;0.06;100.00;98621.06;10238154;29;20051;-73
2021/01/24 02:55:44;;;;;;;5.05;3.28;;;;;;;0.11;100.00;98633.84;10257753;28;20055;-73
2021/01/24 03:00:45;;;;;;;4.07;3.03;;;;;;;0.12;100.00;98638.13;10253695;29;20039;-73
2021/01/24 03:05:47;;;;;;;4.60;3.03;;;;;;;0.08;100.00;98647.75;10252434;28;20055;-73
2021/01/24 03:10:48;;;;;;;6.82;5.65;;;;;;;0.20;100.00;98662.88;10227021;28;20490;-73
2021/01/24 03:15:51;;;;;;;5.18;3.25;;;;;;;0.11;100.00;98676.13;10238999;28;20050;-73
2021/01/24 03:20:54;;;;;;;4.60;2.72;;;;;;;0.06;100.00;98684.94;10237824;29;20059;-73
2021/01/24 03:25:57;;;;;;;5.57;3.50;;;;;;;0.09;100.00;98700.34;10254471;29;20415;-73
2021/01/24 03:30:58;;;;;;;8.55;4.47;;;;;;;0.10;100.00;98691.69;10269294;28;20428;-73
2021/01/24 03:36:00;;;;;;;5.63;4.18;;;;;;;0.01;100.00;98695.44;10254533;29;20043;-73
2021/01/24 03:41:01;;;;;;;5.68;3.30;;;;;;;-0.03;100.00;98702.47;10254747;28;20051;-73
2021/01/24 03:46:02;;;;;;;6.13;4.45;;;;;;;0.01;100.00;98718.72;10253393;29;20106;-73
2021/01/24 03:51:04;;;;;;;6.63;4.65;;;;;;;0.02;100.00;98732.50;10253569;28;20079;-73
2021/01/24 03:56:05;;;;;;;8.40;6.00;;;;;;;0.00;100.00;98740.34;10254293;29;20411;-72
2021/01/24 04:01:06;;;;;;;8.05;5.30;;;;;;;0.02;100.00;98758.41;10253999;29;20051;-73
2021/01/24 04:06:08;;;;;;;8.07;5.72;;;;;;;0.07;100.00;98772.06;10237257;29;20055;-72
2021/01/24 04:11:09;;;;;;;9.02;5.40;;;;;;;0.01;100.00;98775.66;10265184;28;20039;-73
2021/01/24 04:16:11;;;;;;;9.30;5.95;;;;;;;0.02;100.00;98785.13;10252693;29;20054;-73
2021/01/24 04:21:13;;;;;;;8.02;5.25;;;;;;;-0.07;100.00;98772.47;10252675;29;20060;-73
2021/01/24 04:26:14;;;;;;;9.63;5.70;;;;;;;0.05;100.00;98792.81;10252301;29;20055;-73
2021/01/24 04:31:15;;;;;;;8.10;5.25;;;;;;;0.07;100.00;98800.53;10286384;28;20123;-73
2021/01/24 04:36:17;;;;;;;9.38;5.75;;;;;;;-0.05;100.00;98797.41;10293887;28;20047;-73
2021/01/24 04:41:18;;;;;;;9.60;6.15;;;;;;;0.02;100.00;98802.41;10251140;28;20052;-73
2021/01/24 04:46:20;;;;;;;8.95;6.47;;;;;;;0.05;100.00;98813.53;10252779;29;20407;-72
2021/01/24 04:51:21;;;;;;;10.65;7.53;;;;;;;0.17;100.00;98844.19;10252635;28;20047;-72
2021/01/24 04:56:23;;;;;;;10.32;7.05;;;;;;;0.04;100.00;98847.22;10253333;29;20516;-72
2021/01/24 05:01:25;;;;;;;10.48;7.47;;;;;;;0.02;100.00;98877.47;10252180;28;20054;-72
2021/01/24 05:06:27;;;;;;;12.55;8.77;;;;;;;0.23;100.00;98920.88;10258300;29;20055;-72
2021/01/24 05:11:28;;;;;;;15.13;10.98;;;;;;;0.04;100.00;98888.63;10259196;29;20050;-72
2021/01/24 05:16:30;;;;;;;14.32;10.30;;;;;;;0.23;100.00;98926.03;10267535;28;20050;-72
2021/01/24 05:21:31;;;;;;;16.17;11.60;;;;;;;0.19;100.00;98922.69;10282453;28;20133;-72
2021/01/24 05:26:32;;;;;;;20.15;12.57;;;;;;;0.26;100.00;98921.59;10299671;28;20038;-72
2021/01/24 05:31:33;;;;;;;18.73;10.88;;;;;;;0.24;100.00;98922.56;10287325;28;20047;-72
2021/01/24 05:36:42;;;;;;;19.13;11.60;;;;;;;0.30;100.00;98933.59;10258486;29;20507;-72
2021/01/24 05:41:48;;;;;;;23.60;13.75;;;;;;;0.36;100.00;98938.56;10258935;28;20403;-72
2021/01/24 05:46:52;;;;;;;31.63;18.35;;;;;;;0.34;100.00;98948.13;10273216;28;20491;-72
2021/01/24 05:52:01;;;;;;;31.10;19.08;;;;;;;0.29;100.00;98957.78;10298041;28;20252;-72
2021/01/24 05:57:02;;;;;;;19.55;12.50;;;;;;;0.28;100.00;98970.78;10298047;28;20471;-72
2021/01/24 06:02:04;;;;;;;16.15;10.98;;;;;;;0.20;100.00;98963.22;10287336;28;20051;-72
2021/01/24 06:07:05;;;;;;;18.48;11.27;;;;;;;0.24;100.00;98988.16;10257876;28;20047;-71
2021/01/24 06:12:11;;;;;;;22.17;12.55;;;;;;;0.16;100.00;98982.34;10257517;29;20054;-72
2021/01/24 06:17:24;;;;;;;18.98;11.68;;;;;;;0.08;100.00;98973.09;10256388;28;20057;-72
2021/01/24 06:22:32;;;;;;;19.50;12.88;;;;;;;0.25;100.00;99004.53;10256529;29;20049;-71
2021/01/24 06:27:37;;;;;;;18.00;11.15;;;;;;;0.18;100.00;98998.66;10261452;28;20058;-72
2021/01/24 06:32:39;;;;;;;19.40;12.60;;;;;;;0.31;100.00;99023.34;10280897;28;20059;-73
2021/01/24 06:37:59;;;;;;;16.63;10.85;;;;;;;0.27;100.00;99011.34;10255915;28;20079;-73
2021/01/24 06:43:03;;;;;;;18.40;10.90;;;;;;;0.34;100.00;99030.16;10255862;28;20094;-73
2021/01/24 06:48:05;;;;;;;17.50;11.93;;;;;;;0.36;100.00;99037.00;10238402;29;20066;-73
2021/01/24 06:53:21;;;;;;;20.48;12.77;;;;;;;0.37;100.00;99043.88;10243382;29;20047;-73
2021/01/24 06:58:30;;;;;;;22.55;13.77;;;;;;;0.30;100.00;99044.94;10242665;28;20510;-73
2021/01/24 07:03:31;;;;;;;16.67;12.20;;;;;;;0.33;100.00;99073.34;10248599;28;20369;-73
2021/01/24 07:08:32;;;;;;;30.60;23.90;;;;;;;0.30;100.00;99094.16;10201982;28;20058;-73
2021/01/24 07:13:35;;;;;;;19.45;13.18;;;;;;;0.44;100.00;99092.91;10252176;28;20047;-72
2021/01/24 07:18:41;;;;;;;18.98;11.95;;;;;;;0.31;100.00;99095.00;10294257;28;20077;-72
2021/01/24 07:23:42;;;;;;;20.05;14.30;;;;;;;0.40;100.00;99110.28;10294761;28;20043;-72
2021/01/24 07:28:45;;;;;;;16.58;11.73;;;;;;;0.42;100.00;99120.63;10278282;28;20055;-72
2021/01/24 07:33:47;;;;;;;20.83;14.23;;;;;;;0.49;100.00;99135.94;10253204;29;20051;-73
2021/01/24 07:38:48;;;;;;;22.92;14.45;;;;;;;0.56;100.00;99147.00;10254498;28;20063;-73
2021/01/24 07:43:49;;;;;;;22.75;15.75;;;;;;;0.53;100.00;99140.16;10254147;29;20047;-72
2021/01/24 07:48:51;;;;;;;27.77;17.90;;;;;;;0.79;100.00;99162.75;10253951;29;20116;-73
2021/01/24 07:53:53;;;;;;;33.47;21.27;;;;;;;0.85;100.00;99161.72;10253325;29;20514;-73
2021/01/24 07:58:54;;;;;;;43.58;25.60;;;;;;;0.81;100.00;99158.38;10236065;29;20526;-73
2021/01/24 08:03:55;;;;;;;42.22;25.30;;;;;;;0.90;100.00;99170.25;10254415;29;20039;-73
2021/01/24 08:08:56;;;;;;;36.08;23.52;;;;;;;0.98;100.00;99178.66;10254903;28;20052;-74
2021/01/24 08:13:58;;;;;;;37.15;24.00;;;;;;;1.00;100.00;99180.31;10253860;29;20050;-73
2021/01/24 08:19:02;;;;;;;34.33;21.17;;;;;;;1.07;100.00;99183.56;10254222;29;20058;-73
2021/01/24 08:24:04;;;;;;;33.90;19.52;;;;;;;1.09;100.00;99194.72;10254166;29;20051;-72
2021/01/24 08:29:07;;;;;;;31.65;20.25;;;;;;;1.11;100.00;99195.53;10258671;28;20044;-73
2021/01/24 08:34:09;;;;;;;45.85;32.17;;;;;;;1.18;100.00;99194.47;10256867;29;20039;-73
2021/01/24 08:39:10;;;;;;;36.60;21.75;;;;;;;1.24;100.00;99198.66;10261226;28;20059;-73
2021/01/24 08:44:16;;;;;;;34.22;20.73;;;;;;;1.22;100.00;99190.06;10263890;29;20050;-72
2021/01/24 08:49:25;;;;;;;33.72;20.88;;;;;;;1.22;100.00;99195.25;10263616;28;20058;-72
2021/01/24 08:54:40;;;;;;;47.95;28.77;;;;;;;1.23;100.00;99210.75;10258995;28;20391;-72
2021/01/24 08:59:50;;;;;;;32.78;18.42;;;;;;;1.26;100.00;99218.44;10262773;28;20487;-71
2021/01/24 09:04:51;;;;;;;33.60;17.25;;;;;;;1.38;100.00;99215.50;10282096;28;20052;-72
2021/01/24 09:09:54;;;;;;;30.33;17.08;;;;;;;1.40;100.00;99212.88;10251161;28;20051;-71
2021/01/24 09:14:55;;;;;;;28.30;17.42;;;;;;;1.35;100.00;99205.19;10277218;28;20027;-71
2021/01/24 09:19:56;;;;;;;24.88;14.38;;;;;;;1.36;100.00;99208.66;10273632;28;20054;-71
2021/01/24 09:24:57;;;;;;;28.20;21.17;;;;;;;1.37;100.00;99216.38;10275231;28;20486;-71
2021/01/24 09:29:59;;;;;;;25.85;14.98;;;;;;;1.53;100.00;99216.78;10276301;28;20610;-71
2021/01/24 09:35:00;;;;;;;20.67;14.07;;;;;;;1.43;100.00;99223.13;10262160;28;20126;-71
2021/01/24 09:40:03;;;;;;;21.48;12.93;;;;;;;1.31;100.00;99216.59;10277339;28;20074;-72
2021/01/24 09:45:05;;;;;;;16.55;10.27;;;;;;;1.31;100.00;99232.16;10277337;28;20158;-72
2021/01/24 09:50:08;;;;;;;18.48;11.32;;;;;;;1.47;100.00;99243.78;10277051;28;20442;-72
2021/01/24 09:55:10;;;;;;;17.73;11.13;;;;;;;1.40;100.00;99254.38;10275014;28;20486;-72
2021/01/24 10:00:11;;;;;;;16.98;11.63;;;;;;;1.48;100.00;99262.78;10273601;28;20039;-72
2021/01/24 10:05:13;;;;;;;17.73;12.05;;;;;;;1.56;100.00;99284.19;10259603;28;20366;-72
2021/01/24 10:10:14;;;;;;;22.77;13.35;;;;;;;1.74;100.00;99299.22;10255934;28;20043;-71
2021/01/24 10:15:15;;;;;;;19.63;12.60;;;;;;;1.84;100.00;99305.00;10256354;29;20407;-71
2021/01/24 10:20:18;;;;;;;18.95;14.50;;;;;;;1.82;100.00;99301.59;10224564;29;20043;-71
2021/01/24 10:25:19;;;;;;;23.02;15.90;;;;;;;1.89;100.00;99314.34;10255061;28;20051;-73
2021/01/24 10:30:20;;;;;;;23.58;16.25;;;;;;;1.89;100.00;99309.16;10255859;28;20404;-71
2021/01/24 10:35:22;;;;;;;23.52;18.02;;;;;;;2.00;100.00;99316.63;10260932;28;20495;-71
2021/01/24 10:40:23;;;;;;;33.83;17.40;;;;;;;2.22;100.00;99327.19;10238844;28;20058;-71
2021/01/24 10:45:25;;;;;;;27.20;17.65;;;;;;;2.11;100.00;99318.88;10237058;29;20487;-71
2021/01/24 10:50:27;;;;;;;22.30;16.77;;;;;;;2.04;100.00;99313.03;10261415;28;20039;-72
2021/01/24 10:55:28;;;;;;;23.55;15.98;;;;;;;2.28;100.00;99322.66;10230336;28;20397;-72
2021/01/24 11:00:29;;;;;;;24.33;16.42;;;;;;;2.14;100.00;99318.78;10214774;29;20056;-72
2021/01/24 11:05:32;;;;;;;21.52;15.23;;;;;;;2.18;100.00;99330.78;10240584;28;20050;-72
2021/01/24 11:10:33;;;;;;;48.88;19.73;;;;;;;2.09;100.00;99318.91;10258918;28;20105;-72
2021/01/24 11:15:35;;;;;;;26.00;17.90;;;;;;;2.39;100.00;99335.31;10264338;29;20055;-72
2021/01/24 11:20:36;;;;;;;25.75;17.85;;;;;;;2.29;100.00;99323.50;10276665;28;20492;-72
2021/01/24 11:25:38;;;;;;;20.65;15.23;;;;;;;2.33;100.00;99340.72;10255590;28;20047;-72
2021/01/24 11:30:40;;;;;;;23.98;17.77;;;;;;;2.62;100.00;99351.03;10253566;28;20369;-72
2021/01/24 11:35:41;;;;;;;24.00;16.02;;;;;;;2.88;100.00;99354.53;10253074;29;20047;-72
2021/01/24 11:40:42;;;;;;;32.55;16.23;;;;;;;3.26;100.00;99367.13;10252271;28;20051;-73
2021/01/24 11:45:44;;;;;;;19.15;14.32;;;;;;;6.09;100.00;99470.72;10253472;29;20055;-72
2021/01/24 11:50:46;;;;;;;19.88;12.63;;;;;;;6.43;100.00;99430.81;10252725;28;20055;-72
2021/01/24 11:55:48;;;;;;;16.88;11.43;;;;;;;8.86;95.58;99433.22;10252772;28;20051;-72
2021/01/24 12:00:49;;;;;;;13.73;9.93;;;;;;;9.71;80.42;99391.44;10253842;29;20058;-72
2021/01/24 12:05:50;;;;;;;20.58;10.35;;;;;;;10.29;74.10;99357.19;10236255;29;20047;-72
2021/01/24 12:10:51;;;;;;;13.45;8.93;;;;;;;10.07;71.03;99305.00;10235560;28;20051;-72
2021/01/24 12:15:52;;;;;;;29.45;14.65;;;;;;;10.87;67.73;99275.25;10261414;29;20376;-70
2021/01/24 12:20:54;;;;;;;14.23;9.80;;;;;;;9.84;70.51;99298.56;10260545;28;20089;-72
2021/01/24 12:25:55;;;;;;;13.45;9.63;;;;;;;10.66;69.41;99331.97;10261244;29;20036;-72
2021/01/24 12:30:57;;;;;;;15.57;9.48;;;;;;;12.08;66.08;99341.63;10260069;28;20039;-72
2021/01/24 12:35:58;;;;;;;12.93;9.60;;;;;;;11.86;64.86;99288.69;10260898;29;20054;-72
2021/01/24 12:40:59;;;;;;;11.73;8.48;;;;;;;11.95;64.27;99278.31;10259672;28;20059;-72
2021/01/24 12:46:00;;;;;;;14.30;9.02;;;;;;;12.05;63.97;99271.41;10259873;29;20040;-72
2021/01/24 12:51:01;;;;;;;12.80;8.80;;;;;;;10.75;67.29;99275.19;10258161;28;20051;-72
2021/01/24 12:56:05;;;;;;;14.82;9.93;;;;;;;9.55;69.84;99243.44;10230403;28;20447;-72
2021/01/24 13:01:06;;;;;;;18.98;11.90;;;;;;;11.43;65.42;99267.91;10262372;28;20038;-72
2021/01/24 13:06:07;;;;;;;32.58;23.35;;;;;;;10.75;65.58;99218.09;10268332;28;20058;-72
2021/01/24 13:11:08;;;;;;;22.27;14.55;;;;;;;11.01;64.59;99216.34;10257008;28;20055;-72
2021/01/24 13:16:09;;;;;;;23.30;15.20;;;;;;;10.09;67.45;99224.19;10258786;29;20042;-71
2021/01/24 13:21:11;;;;;;;51.58;26.40;;;;;;;10.60;66.75;99253.34;10240171;28;20054;-71
2021/01/24 13:26:12;;;;;;;21.55;13.88;;;;;;;10.77;66.20;99247.81;10267151;28;20046;-71
2021/01/24 13:31:13;;;;;;;18.23;14.95;;;;;;;8.84;69.96;99170.69;10258985;28;20094;-71
2021/01/24 13:36:15;;;;;;;17.80;15.55;;;;;;;8.79;72.65;99246.25;10256982;29;20039;-71
2021/01/24 13:41:16;;;;;;;19.77;13.60;;;;;;;6.41;80.15;99199.84;10256911;29;20113;-70
2021/01/24 13:46:17;;;;;;;17.27;11.85;;;;;;;5.22;85.35;99160.22;10256851;29;20047;-70
2021/01/24 13:51:19;;;;;;;18.30;12.43;;;;;;;4.57;93.22;99188.31;10256923;28;20071;-71
2021/01/24 13:56:20;;;;;;;21.95;14.70;;;;;;;4.32;96.20;99202.44;10218616;29;20043;-71
2021/01/24 14:01:21;;;;;;;18.60;13.20;;;;;;;4.14;98.76;99206.66;10226072;28;20035;-71
2021/01/24 14:06:22;;;;;;;23.15;15.38;;;;;;;4.32;100.00;99231.13;10255205;29;20035;-71
2021/01/24 14:11:23;;;;;;;22.58;15.40;;;;;;;3.79;100.00;99231.50;10256791;28;20047;-71
2021/01/24 14:16:24;;;;;;;20.50;16.13;;;;;;;3.28;100.00;99222.13;10255800;28;20055;-71
2021/01/24 14:21:25;;;;;;;22.85;15.85;;;;;;;3.11;100.00;99240.13;10256341;29;20043;-71
2021/01/24 14:26:27;;;;;;;28.00;20.45;;;;;;;2.90;100.00;99249.53;10255986;29;20050;-71
2021/01/24 14:31:29;;;;;;;21.38;16.30;;;;;;;2.77;100.00;99258.66;10238214;29;20071;-70
2021/01/24 14:36:31;;;;;;;22.45;16.13;;;;;;;2.87;100.00;99270.44;10269530;28;20043;-71
2021/01/24 14:41:32;;;;;;;21.00;14.43;;;;;;;2.66;100.00;99277.25;10255768;28;20047;-71
2021/01/24 14:46:37;;;;;;;19.98;15.68;;;;;;;2.55;100.00;99274.13;10263690;28;20048;-71
2021/01/24 14:51:38;;;;;;;19.67;13.45;;;;;;;2.34;100.00;99276.59;10257406;28;20184;-70
2021/01/24 14:56:40;;;;;;;18.55;13.07;;;;;;;2.36;100.00;99296.41;10261497;28;20047;-71
2021/01/24 15:01:42;;;;;;;19.75;13.55;;;;;;;2.31;100.00;99293.13;10272531;28;20058;-71
2021/01/24 15:06:44;;;;;;;18.40;14.02;;;;;;;2.29;100.00;99306.16;10248296;28;20074;-71
2021/01/24 15:11:47;;;;;;;20.83;15.15;;;;;;;2.14;100.00;99292.81;10276539;28;20049;-71
2021/01/24 15:16:48;;;;;;;19.27;14.23;;;;;;;2.13;100.00;99304.09;10270470;28;20040;-71
2021/01/24 15:21:49;;;;;;;18.05;14.93;;;;;;;2.09;100.00;99311.13;10251088;28;20045;-72
2021/01/24 15:26:50;;;;;;;17.02;12.60;;;;;;;2.06;100.00;99310.38;10270802;28;20031;-71
2021/01/24 15:31:52;;;;;;;15.30;13.10;;;;;;;2.05;100.00;99327.72;10277732;28;20046;-71
2021/01/24 15:36:53;;;;;;;24.75;17.77;;;;;;;1.89;100.00;99313.50;10292519;28;20081;-71
2021/01/24 15:41:54;;;;;;;20.20;14.55;;;;;;;1.92;100.00;99325.53;10231055;29;20058;-72
2021/01/24 15:46:55;;;;;;;22.25;16.60;;;;;;;1.40;100.00;99299.34;10231557;29;20054;-72
2021/01/24 15:51:57;;;;;;;43.63;31.85;;;;;;;1.69;100.00;99331.38;10222154;29;20044;-71
2021/01/24 15:56:58;;;;;;;27.70;19.17;;;;;;;1.52;100.00;99324.94;10201538;29;20389;-71
2021/01/24 16:01:59;;;;;;;32.40;24.27;;;;;;;1.52;100.00;99318.88;10213227;29;20138;-71
2021/01/24 16:07:00;;;;;;;24.17;16.27;;;;;;;1.34;100.00;99309.88;10212236;29;20036;-71
2021/01/24 16:12:02;;;;;;;35.97;22.70;;;;;;;1.52;100.00;99326.66;10217406;29;20082;-72
2021/01/24 16:17:04;;;;;;;15.00;11.55;;;;;;;1.38;100.00;99321.03;10231013;29;20085;-72
2021/01/24 16:22:05;;;;;;;11.45;9.00;;;;;;;1.23;100.00;99298.97;10224656;29;20054;-71
2021/01/24 16:27:07;;;;;;;39.17;27.45;;;;;;;1.43;100.00;99313.94;10238203;28;20126;-72
2021/01/24 16:32:08;;;;;;;14.32;9.75;;;;;;;1.27;100.00;99302.31;10212864;29;20043;-71
2021/01/24 16:37:09;;;;;;;14.48;9.82;;;;;;;1.43;100.00;99316.53;10200944;29;20079;-72
2021/01/24 16:42:10;;;;;;;12.85;8.68;;;;;;;1.23;100.00;99300.69;10253182;28;20055;-71
2021/01/24 16:47:11;;;;;;;10.77;7.90;;;;;;;1.02;100.00;99283.97;10252602;29;20043;-72
2021/01/24 16:52:13;;;;;;;10.80;7.57;;;;;;;1.01;100.00;99287.44;10250987;28;20394;-72
2021/01/24 16:57:14;;;;;;;10.88;7.93;;;;;;;1.03;100.00;99303.81;10214879;28;20047;-72
2021/01/24 17:02:15;;;;;;;10.90;7.57;;;;;;;1.19;100.00;99312.03;10273935;28;20039;-72
2021/01/24 17:07:16;;;;;;;12.20;7.28;;;;;;;1.40;100.00;99325.28;10257062;28;20125;-73
2021/01/24 17:12:17;;;;;;;12.73;7.72;;;;;;;1.30;100.00;99318.66;10259171;29;20447;-73
2021/01/24 17:17:19;;;;;;;9.43;7.38;;;;;;;1.33;100.00;99309.94;10258753;29;20050;-72
2021/01/24 17:22:21;;;;;;;16.85;8.38;;;;;;;1.34;100.00;99296.91;10273430;28;20058;-73
2021/01/24 17:27:22;;;;;;;11.90;7.63;;;;;;;1.42;100.00;99305.31;10271994;28;20040;-72
2021/01/24 17:32:24;;;;;;;13.43;10.18;;;;;;;1.48;100.00;99317.28;10248376;28;20285;-72
2021/01/24 17:37:26;;;;;;;22.65;14.48;;;;;;;1.45;100.00;99300.06;10283244;28;20070;-73
2021/01/24 17:42:27;;;;;;;14.82;11.93;;;;;;;1.08;100.00;99276.03;10271647;29;20051;-72
2021/01/24 17:47:28;;;;;;;14.88;10.40;;;;;;;1.06;100.00;99283.84;10267550;28;20085;-72
2021/01/24 17:52:29;;;;;;;14.05;9.73;;;;;;;1.08;100.00;99287.25;10257485;28;20510;-72
2021/01/24 17:57:30;;;;;;;13.80;9.55;;;;;;;1.09;100.00;99275.97;10261918;28;20035;-72
2021/01/24 18:02:31;;;;;;;15.85;7.80;;;;;;;1.00;100.00;99280.59;10289581;28;20050;-72
2021/01/24 18:07:33;;;;;;;12.30;7.90;;;;;;;0.81;100.00;99269.84;10296914;28;20078;-72
2021/01/24 18:12:34;;;;;;;13.30;7.95;;;;;;;0.73;100.00;99280.41;10262027;28;20051;-72
2021/01/24 18:17:35;;;;;;;9.93;6.90;;;;;;;0.97;100.00;99293.63;10228925;28;20050;-72
2021/01/24 18:22:36;;;;;;;11.88;8.95;;;;;;;1.16;100.00;99300.03;10239810;29;20049;-72
2021/01/24 18:27:37;;;;;;;28.38;18.40;;;;;;;1.11;100.00;99281.13;10230874;28;20054;-72
2021/01/24 18:32:39;;;;;;;66.40;36.65;;;;;;;1.01;100.00;99271.88;10265661;28;20035;-72
2021/01/24 18:37:40;;;;;;;66.75;39.22;;;;;;;0.76;100.00;99245.75;10268865;28;20054;-72
2021/01/24 18:42:41;;;;;;;48.22;28.60;;;;;;;0.80;100.00;99247.41;10258220;28;20038;-72
2021/01/24 18:47:42;;;;;;;17.58;11.75;;;;;;;0.83;100.00;99246.47;10274876;28;20039;-72
2021/01/24 18:52:44;;;;;;;12.18;7.50;;;;;;;0.61;100.00;99225.44;10267232;28;20043;-72
2021/01/24 18:57:45;;;;;;;13.95;9.70;;;;;;;0.46;100.00;99212.91;10256420;28;20118;-72
2021/01/24 19:02:48;;;;;;;7.10;5.63;;;;;;;0.56;100.00;99217.81;10278656;28;20402;-72
2021/01/24 19:07:49;;;;;;;7.40;5.40;;;;;;;0.69;100.00;99226.94;10264692;28;20054;-71
2021/01/24 19:12:50;;;;;;;11.77;6.50;;;;;;;-0.03;100.00;99178.72;10237298;29;20051;-72
2021/01/24 19:17:51;;;;;;;9.82;7.22;;;;;;;-0.27;100.00;99183.63;10270093;28;20535;-72
2021/01/24 19:22:52;;;;;;;11.85;7.65;;;;;;;-0.52;100.00;99173.84;10273148;28;20035;-72
2021/01/24 19:27:54;;;;;;;12.38;7.50;;;;;;;-0.49;100.00;99189.28;10253610;28;20051;-72
2021/01/24 19:32:55;;;;;;;11.23;7.93;;;;;;;-0.42;100.00;99197.78;10253780;29;20070;-72
2021/01/24 19:37:57;;;;;;;12.23;8.82;;;;;;;-0.38;100.00;99187.31;10253186;29;20087;-72
2021/01/24 19:42:59;;;;;;;13.77;10.55;;;;;;;-0.60;100.00;99180.09;10253095;29;20047;-72
2021/01/24 19:48:13;;;;;;;15.13;9.80;;;;;;;-0.51;100.00;99191.09;10275012;28;20043;-72
2021/01/24 19:53:15;;;;;;;12.00;9.18;;;;;;;-0.41;100.00;99199.47;10263246;28;20098;-72
2021/01/24 19:58:16;;;;;;;16.67;10.88;;;;;;;-0.29;100.00;99212.13;10253318;29;20051;-72
2021/01/24 20:03:17;;;;;;;16.27;11.77;;;;;;;-0.61;100.00;99191.31;10252779;29;20063;-72
2021/01/24 20:08:18;;;;;;;15.93;11.65;;;;;;;-0.59;100.00;99190.41;10253215;28;20063;-72
2021/01/24 20:13:20;;;;;;;14.77;10.25;;;;;;;-0.68;100.00;99179.41;10213709;29;20046;-72
2021/01/24 20:18:21;;;;;;;15.82;12.10;;;;;;;-0.55;100.00;99184.25;10224096;28;20514;-72
2021/01/24 20:23:22;;;;;;;16.05;11.68;;;;;;;-0.59;100.00;99182.66;10271108;28;20054;-72
2021/01/24 20:28:23;;;;;;;14.55;11.18;;;;;;;-0.53;100.00;99187.66;10273398;28;20050;-72
2021/01/24 20:33:24;;;;;;;15.20;11.23;;;;;;;-0.56;100.00;99179.13;10273295;28;20043;-72
2021/01/24 20:38:25;;;;;;;12.30;9.70;;;;;;;-0.54;100.00;99175.63;10279809;28;20061;-72
2021/01/24 20:43:26;;;;;;;15.15;10.65;;;;;;;-0.54;100.00;99180.78;10282017;28;20039;-72
2021/01/24 20:48:28;;;;;;;13.30;9.98;;;;;;;-0.53;100.00;99173.88;10277345;28;20049;-72
2021/01/24 20:53:30;;;;;;;14.02;9.30;;;;;;;-0.59;100.00;99163.69;10273866;28;20057;-72
2021/01/24 20:58:31;;;;;;;13.82;11.05;;;;;;;-0.49;100.00;99168.59;10280773;28;20498;-72
2021/01/24 21:03:35;;;;;;;14.73;11.23;;;;;;;-0.30;100.00;99186.28;10273307;28;20054;-72
2021/01/24 21:08:37;;;;;;;13.13;10.00;;;;;;;-0.14;100.00;99191.06;10277241;28;20042;-72
2021/01/24 21:13:38;;;;;;;15.07;9.43;;;;;;;-0.06;100.00;99183.13;10279108;28;20050;-72
2021/01/24 21:18:39;;;;;;;14.48;10.73;;;;;;;-0.04;100.00;99186.53;10277218;28;20035;-72
2021/01/24 21:23:41;;;;;;;14.95;10.75;;;;;;;-0.11;100.00;99170.31;10280314;28;20052;-72
2021/01/24 21:28:43;;;;;;;16.77;11.93;;;;;;;-0.09;100.00;99165.94;10274751;28;20150;-72
2021/01/24 21:33:44;;;;;;;14.43;10.70;;;;;;;0.00;100.00;99175.22;10280857;28;20069;-72
2021/01/24 21:38:45;;;;;;;16.58;11.20;;;;;;;0.04;100.00;99182.00;10276226;28;20055;-71
2021/01/24 21:43:46;;;;;;;16.50;10.90;;;;;;;0.04;100.00;99170.81;10254718;28;20043;-71
2021/01/24 21:48:48;;;;;;;14.50;10.60;;;;;;;0.05;100.00;99172.50;10298122;28;20395;-72
2021/01/24 21:53:49;;;;;;;16.52;11.43;;;;;;;0.00;100.00;99167.47;10298239;28;20045;-72
2021/01/24 21:58:50;;;;;;;18.17;11.93;;;;;;;0.04;100.00;99163.88;10284824;28;20043;-72
2021/01/24 22:03:51;;;;;;;15.38;10.50;;;;;;;-0.04;100.00;99147.69;10258019;29;20049;-72
2021/01/24 22:08:52;;;;;;;14.27;10.25;;;;;;;0.15;100.00;99171.41;10245119;28;20107;-72
2021/01/24 22:13:53;;;;;;;14.15;10.13;;;;;;;0.15;100.00;99161.88;10257834;29;20043;-72
2021/01/24 22:18:55;;;;;;;12.65;10.07;;;;;;;0.22;100.00;99168.59;10255761;29;20047;-72
2021/01/24 22:23:56;;;;;;;13.93;9.30;;;;;;;0.18;100.00;99155.75;10260511;28;20058;-72
2021/01/24 22:28:57;;;;;;;12.23;8.85;;;;;;;0.12;100.00;99156.78;10241691;28;20058;-72
2021/01/24 22:33:58;;;;;;;10.98;8.38;;;;;;;0.17;100.00;99164.44;10243971;29;20051;-72
2021/01/24 22:38:59;;;;;;;11.77;8.55;;;;;;;0.11;100.00;99147.31;10239210;28;20419;-72
2021/01/24 22:44:00;;;;;;;10.38;7.70;;;;;;;0.15;100.00;99156.72;10268165;28;20046;-72
2021/01/24 22:49:01;;;;;;;11.93;7.45;;;;;;;0.19;100.00;99149.69;10264779;28;20062;-72
2021/01/24 22:54:03;;;;;;;11.20;7.45;;;;;;;0.18;100.00;99141.06;10256173;28;20412;-72
2021/01/24 22:59:07;;;;;;;15.98;9.43;;;;;;;0.24;100.00;99153.88;10255728;28;20054;-72